createdAt,value
2018-08-12T00:00:28.076Z,12.80
2018-08-12T00:02:58.646Z,11.20
2018-08-12T00:05:28.304Z,10.80
2018-08-12T00:07:58.305Z,9.00
2018-08-12T00:10:27.702Z,11.33
2018-08-12T00:12:58.673Z,16.93
2018-08-12T00:15:28.929Z,11.33
2018-08-12T00:17:59.353Z,10.50
2018-08-12T00:20:28.478Z,15.30
2018-08-12T00:22:58.136Z,10.23
2018-08-12T00:25:27.246Z,10.20
2018-08-12T00:27:56.703Z,10.00
2018-08-12T00:30:26.292Z,9.73
2018-08-12T00:32:56.314Z,19.40
2018-08-12T00:35:25.764Z,10.77
2018-08-12T00:37:54.543Z,11.13
2018-08-12T00:40:24.198Z,14.27
2018-08-12T00:42:54.262Z,11.37
2018-08-12T00:45:23.739Z,10.60
2018-08-12T00:47:52.966Z,10.47
2018-08-12T00:50:23.233Z,11.57
2018-08-12T00:52:54.504Z,9.17
2018-08-12T00:55:24.804Z,9.17
2018-08-12T00:57:55.309Z,13.97
2018-08-12T01:00:27.124Z,13.27
2018-08-12T01:02:57.391Z,12.80
2018-08-12T01:05:27.572Z,18.13
2018-08-12T01:07:57.204Z,14.00
2018-08-12T01:10:27.188Z,10.30
2018-08-12T01:12:57.398Z,11.80
2018-08-12T01:15:27.789Z,11.63
2018-08-12T01:17:56.853Z,13.03
2018-08-12T01:20:27.152Z,12.07
2018-08-12T01:22:56.174Z,19.20
2018-08-12T01:25:25.186Z,14.80
2018-08-12T01:27:54.808Z,8.90
2018-08-12T01:30:24.721Z,9.80
2018-08-12T01:32:53.720Z,17.10
2018-08-12T01:35:23.179Z,9.43
2018-08-12T01:37:53.961Z,13.17
2018-08-12T01:40:23.929Z,10.37
2018-08-12T01:42:54.777Z,11.67
2018-08-12T01:45:24.651Z,10.43
2018-08-12T01:47:54.083Z,19.23
2018-08-12T01:50:23.944Z,9.80
2018-08-12T01:52:53.296Z,13.53
2018-08-12T01:55:24.652Z,11.50
2018-08-12T01:57:54.220Z,17.57
2018-08-12T02:00:24.417Z,17.10
2018-08-12T02:02:56.549Z,20.53
2018-08-12T02:05:26.863Z,13.10
2018-08-12T02:07:56.008Z,10.50
2018-08-12T02:10:25.503Z,9.87
2018-08-12T02:12:54.565Z,11.00
2018-08-12T02:15:24.492Z,10.67
2018-08-12T02:17:53.401Z,11.43
2018-08-12T02:20:22.348Z,12.00
2018-08-12T02:22:51.168Z,13.43
2018-08-12T02:25:20.604Z,13.87
2018-08-12T02:27:49.255Z,10.30
2018-08-12T02:30:19.403Z,12.10
2018-08-12T02:32:49.152Z,12.53
2018-08-12T02:35:18.797Z,9.63
2018-08-12T02:37:47.876Z,11.60
2018-08-12T02:40:19.178Z,9.90
2018-08-12T02:42:48.334Z,10.37
2018-08-12T02:45:18.670Z,10.73
2018-08-12T02:47:47.741Z,13.03
2018-08-12T02:50:17.377Z,11.70
2018-08-12T02:52:46.230Z,13.03
2018-08-12T02:55:15.585Z,11.83
2018-08-12T02:57:45.510Z,11.73
2018-08-12T03:00:15.021Z,9.60
2018-08-12T03:02:45.735Z,11.07
2018-08-12T03:05:15.407Z,10.03
2018-08-12T03:07:45.322Z,11.17
2018-08-12T03:10:14.648Z,11.60
2018-08-12T03:12:45.176Z,13.90
2018-08-12T03:15:14.898Z,14.60
2018-08-12T03:17:44.253Z,13.70
2018-08-12T03:20:14.168Z,12.10
2018-08-12T03:22:44.294Z,14.40
2018-08-12T03:25:13.053Z,9.97
2018-08-12T03:27:42.592Z,9.43
2018-08-12T03:30:12.606Z,9.70
2018-08-12T03:32:41.617Z,11.17
2018-08-12T03:35:11.666Z,9.13
2018-08-12T03:37:41.501Z,15.13
2018-08-12T03:40:12.680Z,10.93
2018-08-12T03:42:42.046Z,10.90
2018-08-12T03:45:11.764Z,16.20
2018-08-12T03:47:40.894Z,13.53
2018-08-12T03:50:11.504Z,10.10
2018-08-12T03:52:41.015Z,13.53
2018-08-12T03:55:11.455Z,12.13
2018-08-12T03:57:41.206Z,9.37
2018-08-12T04:00:15.311Z,12.40
2018-08-12T04:02:45.110Z,10.77
2018-08-12T04:05:14.352Z,13.03
2018-08-12T04:07:43.603Z,15.53
2018-08-12T04:10:12.726Z,11.77
2018-08-12T04:12:42.009Z,9.73
2018-08-12T04:15:12.017Z,14.00
2018-08-12T04:17:42.706Z,12.10
2018-08-12T04:20:12.585Z,11.23
2018-08-12T04:22:41.989Z,14.77
2018-08-12T04:25:11.512Z,14.00
2018-08-12T04:27:40.205Z,11.33
2018-08-12T04:30:10.548Z,13.53
2018-08-12T04:32:40.141Z,10.03
2018-08-12T04:35:09.749Z,22.33
2018-08-12T04:37:40.060Z,11.97
2018-08-12T04:40:11.015Z,13.07
2018-08-12T04:42:43.429Z,12.70
2018-08-12T04:45:14.238Z,21.10
2018-08-12T04:47:44.421Z,13.70
2018-08-12T04:50:13.461Z,9.73
2018-08-12T04:52:43.832Z,13.30
2018-08-12T04:55:13.029Z,11.27
2018-08-12T04:57:42.112Z,9.87
2018-08-12T05:00:13.104Z,10.77
2018-08-12T05:02:44.375Z,12.73
2018-08-12T05:05:14.903Z,13.80
2018-08-12T05:07:43.999Z,17.33
2018-08-12T05:10:13.877Z,16.57
2018-08-12T05:12:43.246Z,13.93
2018-08-12T05:15:13.546Z,10.77
2018-08-12T05:17:42.930Z,11.53
2018-08-12T05:20:12.334Z,14.60
2018-08-12T05:22:41.846Z,13.37
2018-08-12T05:25:11.495Z,17.00
2018-08-12T05:27:41.612Z,11.30
2018-08-12T05:30:12.203Z,17.13
2018-08-12T05:32:41.905Z,21.93
2018-08-12T05:35:13.393Z,10.70
2018-08-12T05:37:42.773Z,14.30
2018-08-12T05:40:12.900Z,10.53
2018-08-12T05:42:42.404Z,13.10
2018-08-12T05:45:11.829Z,11.73
2018-08-12T05:47:41.459Z,11.23
2018-08-12T05:50:11.552Z,15.37
2018-08-12T05:52:43.078Z,10.40
2018-08-12T05:55:13.671Z,18.50
2018-08-12T05:57:43.188Z,13.77
2018-08-12T06:00:14.542Z,13.37
2018-08-12T06:02:46.399Z,10.43
2018-08-12T06:05:17.197Z,13.03
2018-08-12T06:07:47.423Z,12.27
2018-08-12T06:10:18.176Z,20.97
2018-08-12T06:12:50.101Z,15.13
2018-08-12T06:15:19.837Z,15.63
2018-08-12T06:17:48.589Z,10.43
2018-08-12T06:20:19.519Z,15.00
2018-08-12T06:22:51.333Z,12.43
2018-08-12T06:25:21.240Z,25.97
2018-08-12T06:27:50.132Z,12.33
2018-08-12T06:30:19.101Z,11.23
2018-08-12T06:32:49.216Z,17.10
2018-08-12T06:35:20.223Z,15.43
2018-08-12T06:37:50.498Z,10.83
2018-08-12T06:40:20.807Z,9.40
2018-08-12T06:42:50.987Z,14.57
2018-08-12T06:45:21.428Z,14.53
2018-08-12T06:47:50.895Z,19.87
2018-08-12T06:50:22.404Z,11.17
2018-08-12T06:52:52.338Z,13.40
2018-08-12T06:55:23.003Z,14.63
2018-08-12T06:57:52.358Z,16.90
2018-08-12T07:00:21.406Z,14.40
2018-08-12T07:02:51.581Z,12.30
2018-08-12T07:05:21.203Z,15.00
2018-08-12T07:07:50.319Z,13.10
2018-08-12T07:10:20.820Z,11.50
2018-08-12T07:12:50.560Z,9.40
2018-08-12T07:15:21.160Z,9.97
2018-08-12T07:17:50.968Z,14.47
2018-08-12T07:20:20.185Z,12.03
2018-08-12T07:22:50.266Z,13.60
2018-08-12T07:25:20.630Z,10.30
2018-08-12T07:27:49.981Z,11.63
2018-08-12T07:30:18.896Z,13.80
2018-08-12T07:32:48.373Z,12.23
2018-08-12T07:35:18.102Z,11.30
2018-08-12T07:37:48.765Z,14.03
2018-08-12T07:40:20.161Z,12.80
2018-08-12T07:42:50.461Z,10.07
2018-08-12T07:45:19.746Z,9.30
2018-08-12T07:47:48.658Z,12.10
2018-08-12T07:50:18.611Z,12.63
2018-08-12T07:52:47.439Z,10.63
2018-08-12T07:55:17.160Z,9.00
2018-08-12T07:57:46.987Z,18.90
2018-08-12T08:00:18.545Z,14.40
2018-08-12T08:02:51.369Z,15.10
2018-08-12T08:05:20.620Z,19.40
2018-08-12T08:07:50.174Z,12.40
2018-08-12T08:10:20.453Z,12.90
2018-08-12T08:12:51.590Z,11.63
2018-08-12T08:15:22.008Z,13.60
2018-08-12T08:17:51.009Z,11.30
2018-08-12T08:20:20.612Z,15.63
2018-08-12T08:22:49.750Z,12.63
2018-08-12T08:25:19.467Z,16.70
2018-08-12T08:27:50.048Z,10.00
2018-08-12T08:30:19.476Z,9.93
2018-08-12T08:32:50.393Z,10.10
2018-08-12T08:35:22.046Z,9.50
2018-08-12T08:37:51.371Z,10.13
2018-08-12T08:40:22.252Z,13.57
2018-08-12T08:42:53.134Z,10.70
2018-08-12T08:45:22.965Z,13.20
2018-08-12T08:47:52.775Z,10.50
2018-08-12T08:50:23.465Z,11.03
2018-08-12T08:52:53.581Z,10.40
2018-08-12T08:55:22.803Z,11.80
2018-08-12T08:57:52.394Z,12.43
2018-08-12T09:00:21.904Z,9.37
2018-08-12T09:02:53.257Z,11.10
2018-08-12T09:05:23.189Z,13.83
2018-08-12T09:07:52.378Z,11.03
2018-08-12T09:10:26.600Z,13.70
2018-08-12T09:12:55.981Z,9.63
2018-08-12T09:15:25.794Z,12.37
2018-08-12T09:17:55.482Z,10.97
2018-08-12T09:20:25.176Z,11.97
2018-08-12T09:22:54.884Z,26.80
2018-08-12T09:25:25.080Z,14.30
2018-08-12T09:27:54.883Z,10.57
2018-08-12T09:30:25.265Z,10.67
2018-08-12T09:32:56.336Z,10.40
2018-08-12T09:35:26.485Z,11.60
2018-08-12T09:37:55.492Z,20.17
2018-08-12T09:40:24.219Z,10.20
2018-08-12T09:42:52.971Z,12.43
2018-08-12T09:45:22.821Z,15.70
2018-08-12T09:47:53.017Z,10.60
2018-08-12T09:50:23.515Z,12.03
2018-08-12T09:52:53.886Z,9.90
2018-08-12T09:55:24.825Z,18.43
2018-08-12T09:57:55.107Z,12.30
2018-08-12T10:00:26.791Z,14.80
2018-08-12T10:02:57.213Z,11.17
2018-08-12T10:05:27.335Z,11.13
2018-08-12T10:07:56.090Z,10.30
2018-08-12T10:10:26.084Z,20.70
2018-08-12T10:12:54.860Z,14.63
2018-08-12T10:15:25.206Z,11.43
2018-08-12T10:17:56.759Z,10.07
2018-08-12T10:20:27.109Z,11.30
2018-08-12T10:22:56.593Z,10.77
2018-08-12T10:25:26.448Z,13.63
2018-08-12T10:27:55.381Z,10.67
2018-08-12T10:30:27.022Z,9.20
2018-08-12T10:32:56.626Z,9.90
2018-08-12T10:35:26.715Z,10.30
2018-08-12T10:37:55.779Z,17.50
2018-08-12T10:40:24.816Z,11.50
2018-08-12T10:42:55.006Z,13.03
2018-08-12T10:45:25.468Z,9.67
2018-08-12T10:47:55.245Z,16.43
2018-08-12T10:50:25.867Z,11.00
2018-08-12T10:52:54.905Z,13.17
2018-08-12T10:55:25.236Z,11.90
2018-08-12T10:57:54.923Z,10.90
2018-08-12T11:00:27.427Z,11.20
2018-08-12T11:02:57.739Z,12.00
2018-08-12T11:05:28.102Z,9.60
2018-08-12T11:07:59.017Z,12.23
2018-08-12T11:10:29.191Z,11.73
2018-08-12T11:12:59.132Z,10.13
2018-08-12T11:15:28.221Z,13.23
2018-08-12T11:17:57.348Z,12.13
2018-08-12T11:20:26.587Z,15.20
2018-08-12T11:22:57.264Z,11.47
2018-08-12T11:25:27.022Z,10.73
2018-08-12T11:27:55.983Z,13.10
2018-08-12T11:30:26.739Z,14.80
2018-08-12T11:32:57.665Z,9.63
2018-08-12T11:35:26.965Z,11.13
2018-08-12T11:37:56.847Z,12.77
2018-08-12T11:40:26.407Z,13.63
2018-08-12T11:42:55.768Z,14.40
2018-08-12T11:45:24.633Z,11.53
2018-08-12T11:47:54.287Z,9.90
2018-08-12T11:50:24.016Z,9.40
2018-08-12T11:52:55.086Z,10.60
2018-08-12T11:55:25.527Z,9.73
2018-08-12T11:57:55.853Z,9.73
2018-08-12T12:00:25.731Z,9.80
2018-08-12T12:02:54.823Z,9.73
2018-08-12T12:05:24.103Z,9.80
2018-08-12T12:07:53.859Z,8.80
2018-08-12T12:10:23.875Z,9.37
2018-08-12T12:12:54.092Z,9.50
2018-08-12T12:15:23.882Z,9.90
2018-08-12T12:17:54.188Z,9.53
2018-08-12T12:20:24.783Z,10.40
2018-08-12T12:22:53.602Z,12.30
2018-08-12T12:25:22.594Z,9.10
2018-08-12T12:27:51.744Z,10.00
2018-08-12T12:30:22.794Z,8.73
2018-08-12T12:32:54.025Z,9.53
2018-08-12T12:35:23.376Z,9.07
2018-08-12T12:37:53.058Z,9.83
2018-08-12T12:40:23.535Z,8.50
2018-08-12T12:42:52.750Z,12.10
2018-08-12T12:45:22.761Z,9.30
2018-08-12T12:47:52.176Z,8.73
2018-08-12T12:50:23.895Z,9.95
2018-08-12T12:52:54.642Z,9.88
2018-08-12T12:55:24.934Z,8.60
2018-08-12T12:57:54.328Z,8.28
2018-08-12T13:00:23.721Z,8.68
2018-08-12T13:02:52.911Z,8.80
2018-08-12T13:05:22.586Z,8.68
2018-08-12T13:07:52.142Z,8.30
2018-08-12T13:10:21.869Z,8.58
2018-08-12T13:12:50.715Z,8.35
2018-08-12T13:15:19.594Z,11.35
2018-08-12T13:17:48.364Z,16.30
2018-08-12T13:20:19.123Z,8.70
2018-08-12T13:22:49.190Z,9.05
2018-08-12T13:25:20.436Z,8.88
2018-08-12T13:27:49.305Z,9.00
2018-08-12T13:30:20.264Z,8.45
2018-08-12T13:32:50.557Z,8.30
2018-08-12T13:35:20.787Z,8.45
2018-08-12T13:37:51.255Z,8.73
2018-08-12T13:40:21.838Z,8.73
2018-08-12T13:42:52.889Z,8.60
2018-08-12T13:45:22.476Z,9.20
2018-08-12T13:47:52.911Z,9.20
2018-08-12T13:50:23.375Z,8.43
2018-08-12T13:52:53.387Z,8.05
2018-08-12T13:55:23.517Z,8.83
2018-08-12T13:57:53.083Z,8.80
2018-08-12T14:00:23.993Z,8.78
2018-08-12T14:02:54.061Z,9.38
2018-08-12T14:05:23.756Z,10.55
2018-08-12T14:07:53.622Z,9.13
2018-08-12T14:10:25.174Z,9.20
2018-08-12T14:12:54.669Z,10.97
2018-08-12T14:15:24.635Z,9.07
2018-08-12T14:17:55.159Z,9.10
2018-08-12T14:20:24.718Z,9.80
2018-08-12T14:22:55.470Z,12.23
2018-08-12T14:25:26.019Z,9.40
2018-08-12T14:27:55.713Z,9.60
2018-08-12T14:30:25.029Z,10.23
2018-08-12T14:32:55.692Z,8.50
2018-08-12T14:35:26.467Z,10.73
2018-08-12T14:37:56.938Z,12.37
2018-08-12T14:40:27.402Z,8.90
2018-08-12T14:42:56.875Z,8.93
2018-08-12T14:45:26.242Z,9.67
2018-08-12T14:47:55.920Z,10.03
2018-08-12T14:50:25.949Z,8.77
2018-08-12T14:52:55.893Z,9.10
2018-08-12T14:55:24.990Z,9.03
2018-08-12T14:57:53.811Z,11.70
2018-08-12T15:00:22.846Z,11.90
2018-08-12T15:02:53.367Z,10.20
2018-08-12T15:05:22.830Z,9.30
2018-08-12T15:07:55.875Z,22.93
2018-08-12T15:10:25.834Z,9.27
2018-08-12T15:12:55.384Z,16.67
2018-08-12T15:15:24.806Z,10.20
2018-08-12T15:17:53.909Z,10.83
2018-08-12T15:20:22.789Z,13.60
2018-08-12T15:22:53.305Z,9.83
2018-08-12T15:25:22.745Z,9.97
2018-08-12T15:27:51.727Z,12.30
2018-08-12T15:30:22.201Z,12.10
2018-08-12T15:33:00.670Z,12.60
2018-08-12T15:35:31.529Z,31.93
2018-08-12T15:38:01.645Z,10.30
2018-08-12T15:40:35.256Z,9.57
2018-08-12T15:43:05.676Z,12.33
2018-08-12T15:45:42.158Z,10.93
2018-08-12T15:48:12.568Z,11.43
2018-08-12T15:50:43.460Z,11.90
2018-08-12T15:53:17.260Z,9.60
2018-08-12T15:55:49.436Z,9.27
2018-08-12T15:58:19.973Z,9.63
2018-08-12T16:00:50.094Z,10.90
2018-08-12T16:03:21.521Z,10.70
2018-08-12T16:05:51.382Z,10.20
2018-08-12T16:08:21.506Z,14.20
2018-08-12T16:10:51.804Z,10.27
2018-08-12T16:13:21.967Z,13.20
2018-08-12T16:15:53.188Z,10.40
2018-08-12T16:18:24.449Z,12.30
2018-08-12T16:20:55.197Z,12.50
2018-08-12T16:23:24.800Z,11.10
2018-08-12T16:25:54.463Z,13.67
2018-08-12T16:28:25.151Z,10.37
2018-08-12T16:30:54.382Z,10.07
2018-08-12T16:33:26.504Z,12.63
2018-08-12T16:35:57.150Z,10.37
2018-08-12T16:38:26.227Z,14.90
2018-08-12T16:40:55.543Z,14.10
2018-08-12T16:43:24.672Z,14.67
2018-08-12T16:45:55.017Z,12.90
2018-08-12T16:48:25.349Z,11.60
2018-08-12T16:50:55.668Z,18.97
2018-08-12T16:53:25.362Z,10.43
2018-08-12T16:55:56.812Z,11.33
2018-08-12T16:58:26.462Z,10.87
2018-08-12T17:00:56.549Z,10.87
2018-08-12T17:03:29.346Z,11.67
2018-08-12T17:06:00.324Z,13.10
2018-08-12T17:08:32.047Z,9.93
2018-08-12T17:11:01.461Z,10.80
2018-08-12T17:13:30.906Z,12.57
2018-08-12T17:16:00.865Z,12.40
2018-08-12T17:18:30.647Z,11.13
2018-08-12T17:21:00.509Z,16.80
2018-08-12T17:23:29.234Z,10.03
2018-08-12T17:25:58.183Z,10.70
2018-08-12T17:28:27.104Z,10.47
2018-08-12T17:30:56.264Z,10.10
2018-08-12T17:33:25.801Z,13.30
2018-08-12T17:35:55.873Z,10.87
2018-08-12T17:38:26.024Z,11.70
2018-08-12T17:40:55.137Z,13.10
2018-08-12T17:43:24.101Z,13.43
2018-08-12T17:45:54.157Z,16.23
2018-08-12T17:48:23.603Z,11.27
2018-08-12T17:50:54.106Z,10.17
2018-08-12T17:53:23.169Z,13.90
2018-08-12T17:55:53.376Z,12.07
2018-08-12T17:58:22.953Z,15.17
2018-08-12T18:00:52.409Z,12.73
2018-08-12T18:03:21.326Z,13.03
2018-08-12T18:05:50.676Z,14.60
2018-08-12T18:08:19.813Z,13.20
2018-08-12T18:10:48.905Z,12.67
2018-08-12T18:13:18.297Z,13.60
2018-08-12T18:15:48.291Z,12.07
2018-08-12T18:18:18.433Z,14.33
2018-08-12T18:20:53.676Z,12.63
2018-08-12T18:23:22.798Z,13.80
2018-08-12T18:25:53.911Z,13.33
2018-08-12T18:28:23.998Z,19.07
2018-08-12T18:30:55.913Z,12.50
2018-08-12T18:33:25.437Z,14.17
2018-08-12T18:35:54.717Z,19.23
2018-08-12T18:38:26.095Z,13.33
2018-08-12T18:40:55.730Z,15.40
2018-08-12T18:43:29.864Z,22.60
2018-08-12T18:45:59.891Z,21.20
2018-08-12T18:48:29.461Z,20.47
2018-08-12T18:51:00.637Z,18.10
2018-08-12T18:53:31.497Z,16.53
2018-08-12T18:56:01.126Z,22.20
2018-08-12T18:58:30.045Z,15.27
2018-08-12T19:01:01.545Z,17.70
2018-08-12T19:03:32.130Z,16.27
2018-08-12T19:06:03.495Z,17.87
2018-08-12T19:08:36.693Z,21.00
2018-08-12T19:11:07.544Z,15.07
2018-08-12T19:13:37.876Z,17.40
2018-08-12T19:16:08.784Z,21.23
2018-08-12T19:18:39.187Z,18.47
2018-08-12T19:21:09.718Z,22.57
2018-08-12T19:23:39.109Z,23.27
2018-08-12T19:26:09.220Z,23.10
2018-08-12T19:28:39.999Z,19.20
2018-08-12T19:31:09.232Z,28.20
2018-08-12T19:33:38.815Z,18.70
2018-08-12T19:36:07.544Z,21.50
2018-08-12T19:38:36.242Z,20.13
2018-08-12T19:41:06.703Z,19.60
2018-08-12T19:43:36.173Z,25.23
2018-08-12T19:46:06.238Z,20.07
2018-08-12T19:48:35.208Z,19.57
2018-08-12T19:51:04.297Z,19.93
2018-08-12T19:53:34.063Z,19.33
2018-08-12T19:56:04.461Z,17.70
2018-08-12T19:58:35.112Z,18.47
2018-08-12T20:01:03.940Z,19.03
2018-08-12T20:03:33.998Z,26.20
2018-08-12T20:06:04.357Z,23.03
2018-08-12T20:08:33.731Z,28.10
2018-08-12T20:11:03.921Z,22.70
2018-08-12T20:13:33.215Z,22.77
2018-08-12T20:16:01.885Z,16.10
2018-08-12T20:18:31.119Z,15.60
2018-08-12T20:21:00.302Z,17.83
2018-08-12T20:23:30.745Z,16.90
2018-08-12T20:26:00.390Z,23.87
2018-08-12T20:28:30.716Z,18.13
2018-08-12T20:31:00.878Z,18.93
2018-08-12T20:33:29.890Z,20.57
2018-08-12T20:36:00.787Z,19.20
2018-08-12T20:38:30.744Z,19.17
2018-08-12T20:41:00.156Z,22.20
2018-08-12T20:43:30.004Z,24.87
2018-08-12T20:46:00.229Z,21.83
2018-08-12T20:48:28.936Z,16.10
2018-08-12T20:50:58.653Z,17.40
2018-08-12T20:53:28.387Z,20.17
2018-08-12T20:55:57.531Z,17.47
2018-08-12T20:58:26.523Z,22.10
2018-08-12T21:00:56.306Z,20.50
2018-08-12T21:03:25.926Z,20.27
2018-08-12T21:05:55.564Z,19.13
2018-08-12T21:08:25.159Z,23.83
2018-08-12T21:10:55.104Z,19.00
2018-08-12T21:13:25.181Z,21.20
2018-08-12T21:15:54.457Z,20.13
2018-08-12T21:18:23.231Z,20.47
2018-08-12T21:20:52.911Z,24.03
2018-08-12T21:23:22.477Z,16.60
2018-08-12T21:25:52.388Z,21.33
2018-08-12T21:28:22.998Z,21.77
2018-08-12T21:30:52.808Z,20.47
2018-08-12T21:33:22.461Z,23.73
2018-08-12T21:35:54.021Z,28.87
2018-08-12T21:38:24.015Z,25.17
2018-08-12T21:40:53.186Z,22.33
2018-08-12T21:43:22.863Z,20.27
2018-08-12T21:45:53.285Z,26.70
2018-08-12T21:48:23.579Z,27.13
2018-08-12T21:50:58.347Z,20.73
2018-08-12T21:53:27.873Z,23.47
2018-08-12T21:55:59.583Z,26.33
2018-08-12T21:58:31.191Z,22.67
2018-08-12T22:01:02.772Z,18.50
2018-08-12T22:03:46.625Z,24.30
2018-08-12T22:06:20.001Z,22.43
2018-08-12T22:08:49.017Z,21.77
2018-08-12T22:11:18.301Z,36.30
2018-08-12T22:13:48.562Z,20.43
2018-08-12T22:18:55.867Z,26.13
2018-08-12T22:21:25.588Z,18.63
2018-08-12T22:23:55.330Z,22.47
2018-08-12T22:26:24.775Z,21.57
2018-08-12T22:28:54.191Z,18.60
2018-08-12T22:31:23.651Z,20.37
2018-08-12T22:33:53.196Z,21.00
2018-08-12T22:36:23.577Z,21.77
2018-08-12T22:38:53.853Z,19.13
2018-08-12T22:41:22.782Z,20.90
2018-08-12T22:43:51.624Z,17.40
2018-08-12T22:46:20.528Z,26.93
2018-08-12T22:48:50.445Z,19.77
2018-08-12T22:51:19.944Z,17.63
2018-08-12T22:53:48.997Z,17.97
2018-08-12T22:56:18.796Z,18.07
2018-08-12T22:58:49.176Z,19.97
2018-08-12T23:01:19.251Z,21.50
2018-08-12T23:03:49.121Z,22.90
2018-08-12T23:06:20.190Z,20.00
2018-08-12T23:08:49.625Z,20.47
2018-08-12T23:11:19.834Z,19.73
2018-08-12T23:13:49.124Z,25.83
2018-08-12T23:16:29.136Z,18.10
2018-08-12T23:18:58.452Z,18.77
2018-08-12T23:21:28.820Z,17.43
2018-08-12T23:23:59.203Z,18.83
2018-08-12T23:26:27.856Z,22.03
2018-08-12T23:28:58.089Z,21.30
2018-08-12T23:31:28.163Z,18.27
2018-08-12T23:33:58.257Z,21.00
2018-08-12T23:36:29.013Z,19.70
2018-08-12T23:38:59.412Z,24.13
2018-08-12T23:41:30.340Z,22.53
2018-08-12T23:44:00.123Z,26.50
2018-08-12T23:46:29.996Z,23.30
2018-08-12T23:48:59.517Z,24.30
2018-08-12T23:51:29.425Z,21.90
2018-08-12T23:53:59.342Z,17.50
2018-08-12T23:56:28.121Z,20.03
2018-08-12T23:58:57.994Z,20.20
